Time;durP1;ratioP1;P1;durP2;ratioP2;P2;SDS_P1;SDS_P2;PMS_P1;PMS_P2;Temp;Humidity;BMP_temperature;BMP_pressure;BME280_temperature;BME280_humidity;BME280_pressure;Samples;Min_cycle;Max_cycle;Signal;HPM_P1;HPM_P2
2022/05/08 00:00:55;;;;;;;5.10;3.60;;;14.50;99.90;;;14.62;66.07;101811.66;4935019;29;20957;-67
2022/05/08 00:03:26;;;;;;;4.27;3.87;;;14.50;99.90;;;14.56;66.42;101812.47;4934493;29;20505;-67
2022/05/08 00:05:55;;;;;;;4.30;3.80;;;14.50;99.90;;;14.34;66.84;101800.84;4934331;29;20507;-67
2022/05/08 00:08:24;;;;;;;4.03;3.60;;;14.30;99.90;;;14.32;67.07;101802.94;4934615;29;20830;-66
2022/05/08 00:10:53;;;;;;;5.70;4.30;;;14.20;99.90;;;14.38;66.74;101801.31;4934137;29;20407;-67
2022/05/08 00:13:22;;;;;;;4.13;3.73;;;14.20;99.90;;;14.32;66.73;101795.63;4934403;29;20494;-67
2022/05/08 00:15:51;;;;;;;7.43;3.93;;;14.20;99.90;;;14.40;66.57;101791.03;4934473;29;20449;-67
2022/05/08 00:18:22;;;;;;;4.63;3.80;;;14.30;99.90;;;14.34;66.78;101795.38;4934473;29;20425;-67
2022/05/08 00:20:53;;;;;;;9.37;4.47;;;14.20;99.90;;;14.31;66.62;101793.94;4934407;29;20481;-68
2022/05/08 00:23:22;;;;;;;4.57;4.17;;;14.20;99.90;;;14.26;66.86;101788.25;4934143;29;20444;-68
2022/05/08 00:25:51;;;;;;;4.27;3.77;;;14.20;99.90;;;14.21;67.17;101788.03;4934418;29;20561;-68
2022/05/08 00:28:19;;;;;;;4.63;4.13;;;14.10;99.90;;;14.20;67.29;101791.78;4934186;29;20415;-68
2022/05/08 00:30:48;;;;;;;6.37;4.90;;;14.10;99.90;;;14.14;67.53;101792.59;4934278;29;20976;-67
2022/05/08 00:33:17;;;;;;;3.77;3.23;;;14.00;99.90;;;14.08;67.86;101796.16;4934512;29;20428;-67
2022/05/08 00:35:46;;;;;;;5.10;4.43;;;14.00;99.90;;;14.05;68.10;101788.38;4933039;29;20468;-68
2022/05/08 00:38:16;;;;;;;5.13;3.97;;;14.00;99.90;;;14.01;68.09;101781.66;4934537;29;20413;-68
2022/05/08 00:40:45;;;;;;;5.30;4.50;;;13.90;99.90;;;14.06;68.05;101795.50;4934838;29;20451;-68
2022/05/08 00:43:33;;;;;;;4.70;3.43;;;13.90;99.90;;;14.18;66.92;101799.34;4935120;29;20445;-68
2022/05/08 00:46:05;;;;;;;4.53;3.20;;;14.00;99.90;;;14.13;66.66;101796.41;4934844;29;20579;-68
2022/05/08 00:48:35;;;;;;;4.73;3.50;;;14.00;99.90;;;13.98;65.89;101806.59;4934846;29;20910;-67
2022/05/08 00:51:08;;;;;;;3.10;2.83;;;13.90;99.90;;;14.00;64.79;101803.63;4933653;29;20462;-68
2022/05/08 00:53:41;;;;;;;3.00;2.70;;;13.80;99.40;;;13.99;63.94;101800.06;4934411;29;20869;-67
2022/05/08 00:56:13;;;;;;;3.40;2.80;;;13.80;97.90;;;13.83;64.22;101801.28;4934143;29;20470;-67
2022/05/08 00:58:45;;;;;;;3.63;2.47;;;13.70;96.60;;;13.80;64.08;101800.81;4934285;29;20762;-68
2022/05/08 01:01:14;;;;;;;3.77;2.63;;;13.60;96.40;;;13.81;63.75;101791.63;4932765;29;20452;-68
2022/05/08 01:03:43;;;;;;;5.97;2.73;;;13.60;95.70;;;13.69;64.34;101801.41;4934086;29;20424;-67
2022/05/08 01:06:14;;;;;;;2.43;2.00;;;13.60;96.50;;;13.63;65.04;101802.19;4934415;29;20491;-67
2022/05/08 01:08:48;;;;;;;4.57;2.60;;;13.50;98.60;;;13.51;65.99;101801.09;4937114;29;20384;-67
2022/05/08 01:11:19;;;;;;;2.57;2.10;;;13.50;99.90;;;13.37;67.22;101808.28;4938216;29;20692;-68
2022/05/08 01:13:49;;;;;;;2.73;2.00;;;13.30;99.90;;;13.23;69.46;101809.25;4937612;29;20468;-68
2022/05/08 01:16:19;;;;;;;4.50;2.40;;;13.30;99.90;;;12.67;73.70;101803.72;4937494;29;20452;-67
2022/05/08 01:18:50;;;;;;;3.67;2.00;;;12.90;99.90;;;12.32;76.38;101802.72;4938191;29;20905;-67
2022/05/08 01:21:24;;;;;;;6.47;3.00;;;12.70;99.90;;;12.06;77.57;101797.81;4937872;29;20462;-67
2022/05/08 01:23:54;;;;;;;8.17;2.80;;;12.30;99.90;;;11.84;78.85;101797.94;4937278;29;20429;-67
2022/05/08 01:26:23;;;;;;;3.90;3.27;;;12.00;99.90;;;11.66;79.87;101803.72;4937221;29;20472;-66
2022/05/08 01:28:52;;;;;;;3.37;3.00;;;11.80;99.90;;;11.69;79.83;101795.19;4935923;29;20826;-66
2022/05/08 01:31:21;;;;;;;3.90;3.20;;;11.70;1.00;;;11.67;79.98;101792.66;4937134;29;20417;-67
2022/05/08 01:33:50;;;;;;;4.00;2.77;;;11.70;1.00;;;11.61;80.09;101790.72;4937125;29;20511;-67
2022/05/08 01:36:19;;;;;;;3.67;3.10;;;11.70;1.00;;;11.60;80.78;101793.63;4936979;29;20900;-67
2022/05/08 01:38:48;;;;;;;3.57;3.23;;;11.60;61.50;;;11.51;81.97;101795.59;4937722;29;20484;-67
2022/05/08 01:41:18;;;;;;;4.43;3.10;;;11.60;1.00;;;11.59;82.42;101798.19;4937333;29;20466;-66
2022/05/08 01:43:47;;;;;;;4.40;3.60;;;11.60;1.00;;;11.48;82.24;101795.94;4937449;29;20383;-66
2022/05/08 01:46:16;;;;;;;4.53;4.03;;;11.50;1.00;;;11.44;82.34;101793.78;4936887;29;20556;-65
2022/05/08 01:48:44;;;;;;;4.33;3.33;;;11.50;1.00;;;11.67;83.98;101798.09;4937596;29;20421;-66
2022/05/08 01:51:16;;;;;;;8.80;3.63;;;11.60;99.90;;;11.63;82.74;101788.66;4936797;29;20472;-67
2022/05/08 01:53:44;;;;;;;4.87;3.37;;;11.70;99.90;;;11.67;82.39;101794.53;4936844;29;20520;-67
2022/05/08 01:56:13;;;;;;;3.30;2.60;;;11.70;99.90;;;11.75;82.21;101798.06;4936558;29;20427;-67
2022/05/08 01:58:43;;;;;;;3.37;3.07;;;11.70;10.20;;;11.82;82.32;101805.41;4936720;29;20419;-67
2022/05/08 02:01:12;;;;;;;3.30;3.00;;;11.70;1.00;;;11.91;81.05;101807.03;4937171;29;20778;-67
2022/05/08 02:03:41;;;;;;;5.17;3.30;;;11.80;1.00;;;11.85;82.68;101807.75;4938135;29;20439;-67
2022/05/08 02:06:10;;;;;;;4.40;3.20;;;11.80;1.00;;;11.93;81.41;101794.94;4937841;29;20484;-67
2022/05/08 02:08:39;;;;;;;4.33;3.30;;;11.90;1.00;;;11.86;79.77;101804.84;4937447;29;20414;-67
2022/05/08 02:11:07;;;;;;;4.00;3.10;;;11.80;1.00;;;11.76;79.88;101798.91;4938123;29;20476;-66
2022/05/08 02:13:36;;;;;;;3.80;3.20;;;11.80;14.50;;;11.89;80.19;101792.78;4937470;29;20428;-66
2022/05/08 02:16:07;;;;;;;5.43;2.97;;;11.80;99.90;;;12.08;80.23;101797.63;4936877;29;20894;-66
2022/05/08 02:18:35;;;;;;;6.43;3.50;;;11.90;25.20;;;12.16;80.93;101813.78;4935578;29;20429;-67
2022/05/08 02:21:04;;;;;;;4.60;3.30;;;12.00;1.00;;;12.15;79.64;101814.84;4936491;29;20395;-67
2022/05/08 02:23:33;;;;;;;3.77;3.37;;;12.10;99.90;;;12.14;79.20;101813.16;4936130;29;20464;-67
2022/05/08 02:26:01;;;;;;;3.20;2.63;;;12.10;99.90;;;12.04;80.17;101807.19;4936231;29;20468;-67
2022/05/08 02:28:30;;;;;;;3.73;3.30;;;12.00;99.90;;;12.01;78.65;101812.97;4935892;29;20444;-68
2022/05/08 02:30:59;;;;;;;4.23;3.80;;;12.00;99.90;;;12.09;78.91;101816.44;4936190;29;20916;-67
2022/05/08 02:33:29;;;;;;;4.20;3.20;;;12.00;1.00;;;12.14;78.69;101818.56;4936518;29;20433;-67
2022/05/08 02:35:58;;;;;;;4.97;4.37;;;12.00;1.00;;;12.24;78.39;101815.56;4936307;29;20503;-67
2022/05/08 02:38:26;;;;;;;3.93;3.10;;;12.10;99.90;;;12.15;79.21;101815.66;4936108;29;20432;-67
2022/05/08 02:40:55;;;;;;;5.07;3.40;;;12.10;1.00;;;12.05;79.91;101819.72;4935992;29;20440;-67
2022/05/08 02:43:23;;;;;;;5.23;3.70;;;12.00;1.00;;;12.17;79.60;101818.19;4936008;29;20612;-67
2022/05/08 02:45:52;;;;;;;3.93;3.33;;;12.00;99.90;;;12.22;78.54;101818.47;4935968;29;20886;-67
2022/05/08 02:48:21;;;;;;;4.13;3.73;;;12.10;1.00;;;12.15;78.30;101817.56;4936002;29;20968;-67
2022/05/08 02:50:51;;;;;;;4.53;3.07;;;12.10;99.90;;;12.10;78.91;101815.38;4935966;29;20783;-67
2022/05/08 02:53:20;;;;;;;4.10;3.27;;;12.10;99.90;;;12.14;78.89;101803.13;4935668;29;20445;-67
2022/05/08 02:58:35;;;;;;;6.23;3.23;;;12.10;99.90;;;12.27;78.43;101816.00;4935639;29;20435;-67
2022/05/08 03:01:06;;;;;;;4.00;3.20;;;12.20;99.90;;;12.14;79.02;101818.56;4935737;29;20406;-67
2022/05/08 03:03:35;;;;;;;5.83;3.90;;;12.10;99.90;;;12.16;81.14;101816.50;4935832;29;20845;-67
2022/05/08 03:06:07;;;;;;;5.30;4.20;;;12.10;1.00;;;12.23;81.69;101822.84;4935723;29;20831;-68
2022/05/08 03:08:36;;;;;;;10.20;3.70;;;12.20;99.90;;;12.29;80.54;101826.69;4935480;29;20400;-67
2022/05/08 03:13:50;;;;;;;6.10;3.63;;;12.20;99.90;;;12.27;80.81;101842.31;4935788;29;20414;-67
2022/05/08 03:16:20;;;;;;;6.77;3.80;;;12.20;1.00;;;12.38;81.54;101847.25;4935236;29;20452;-68
2022/05/08 03:18:48;;;;;;;5.73;4.10;;;12.30;1.00;;;12.41;80.09;101836.84;4935420;29;20448;-67
2022/05/08 03:21:19;;;;;;;5.00;4.50;;;12.40;1.00;;;12.53;78.95;101843.47;4935723;29;20464;-68
2022/05/08 03:23:48;;;;;;;5.70;4.23;;;12.40;1.00;;;12.51;79.70;101845.53;4935354;29;20420;-67
2022/05/08 03:26:19;;;;;;;7.80;4.73;;;12.40;27.70;;;12.42;79.37;101834.97;4935137;29;20467;-67
2022/05/08 03:28:49;;;;;;;4.53;3.50;;;12.40;1.00;;;12.30;79.10;101840.03;4935210;29;20892;-68
2022/05/08 03:31:18;;;;;;;7.13;3.33;;;12.30;99.90;;;12.31;79.08;101841.72;4934923;29;20426;-68
2022/05/08 03:33:47;;;;;;;4.70;3.80;;;12.30;99.90;;;12.30;79.08;101848.19;4935242;29;20577;-68
2022/05/08 03:36:16;;;;;;;4.43;4.00;;;12.30;99.90;;;12.37;78.38;101851.00;4935259;29;20444;-66
2022/05/08 03:38:47;;;;;;;4.40;4.00;;;12.30;17.90;;;12.32;78.20;101854.28;4935129;29;20429;-68
2022/05/08 03:41:16;;;;;;;5.53;3.53;;;12.30;1.00;;;12.31;77.68;101865.31;4935203;29;20423;-68
2022/05/08 03:43:46;;;;;;;4.83;4.33;;;12.20;1.00;;;12.24;76.67;101859.81;4935004;29;20429;-68
2022/05/08 03:46:17;;;;;;;8.27;4.23;;;12.20;99.90;;;12.31;75.67;101860.72;4934947;29;20527;-68
2022/05/08 03:48:46;;;;;;;4.90;2.97;;;12.20;99.90;;;12.27;75.28;101859.44;4935200;29;20417;-68
2022/05/08 03:51:14;;;;;;;5.20;3.47;;;12.20;99.90;;;12.12;76.05;101862.16;4934905;29;20417;-68
2022/05/08 03:53:44;;;;;;;4.67;3.10;;;12.10;99.90;;;12.24;75.00;101861.69;4935098;29;20436;-68
2022/05/08 03:56:13;;;;;;;6.43;4.27;;;12.10;99.90;;;12.20;74.96;101861.22;4935722;29;20459;-68
2022/05/08 03:58:42;;;;;;;5.40;3.43;;;12.10;99.90;;;12.18;75.44;101861.44;4936464;29;20898;-68
2022/05/08 04:01:11;;;;;;;6.70;3.60;;;12.10;99.90;;;12.21;75.40;101857.47;4936143;29;20829;-68
2022/05/08 04:03:40;;;;;;;5.00;3.70;;;12.10;99.90;;;12.17;74.26;101867.03;4936163;29;20440;-68
2022/05/08 04:06:08;;;;;;;3.80;3.10;;;12.10;99.90;;;12.30;74.15;101869.91;4936556;29;20472;-68
2022/05/08 04:08:37;;;;;;;5.13;3.80;;;12.10;99.90;;;12.24;75.44;101867.97;4936494;29;20521;-68
2022/05/08 04:11:07;;;;;;;8.00;4.23;;;12.10;99.90;;;12.20;74.79;101875.63;4936335;29;20444;-67
2022/05/08 04:13:36;;;;;;;5.27;2.80;;;12.10;99.90;;;12.23;73.53;101871.72;4936327;29;20940;-68
2022/05/08 04:16:17;;;;;;;4.60;3.37;;;12.10;99.90;;;12.23;74.26;101866.28;4936542;29;20471;-67
2022/05/08 04:18:47;;;;;;;4.57;2.70;;;12.10;99.90;;;12.33;73.16;101872.25;4935330;29;20452;-67
2022/05/08 04:21:17;;;;;;;3.80;2.87;;;12.10;99.90;;;12.34;72.19;101879.38;4934947;29;20933;-67
2022/05/08 04:26:34;;;;;;;4.37;3.03;;;12.10;99.90;;;12.32;73.37;101888.72;4934815;29;20468;-67
2022/05/08 04:29:04;;;;;;;4.17;3.23;;;12.10;99.90;;;12.20;71.26;101891.06;4934943;29;20417;-67
2022/05/08 04:31:33;;;;;;;6.73;2.83;;;12.10;84.40;;;12.11;70.54;101889.47;4935001;29;20435;-67
2022/05/08 04:34:02;;;;;;;6.43;2.70;;;12.10;53.50;;;12.03;71.00;101878.75;4934954;29;20484;-67
2022/05/08 04:36:32;;;;;;;7.33;2.47;;;12.00;53.00;;;12.04;69.83;101883.13;4934769;29;20453;-67
2022/05/08 04:39:01;;;;;;;3.60;2.40;;;11.90;39.40;;;12.27;69.74;101894.72;4934812;29;20428;-67
2022/05/08 04:41:29;;;;;;;6.40;3.00;;;12.00;33.80;;;12.24;70.20;101889.69;4934569;29;20437;-67
2022/05/08 04:44:01;;;;;;;6.43;2.67;;;12.10;31.40;;;12.24;69.36;101895.09;4938429;29;21018;-67
2022/05/08 04:46:31;;;;;;;6.07;3.07;;;12.10;29.90;;;12.20;68.68;101888.34;4938140;29;20468;-67
2022/05/08 04:49:03;;;;;;;6.70;2.50;;;12.10;25.80;;;12.10;67.82;101899.50;4938249;29;20796;-67
2022/05/08 04:51:32;;;;;;;4.67;2.40;;;12.00;10.10;;;11.90;68.25;101892.13;4938248;29;20440;-67
2022/05/08 04:54:00;;;;;;;8.10;3.07;;;11.90;13.70;;;11.86;68.51;101899.78;4938974;29;20437;-67
2022/05/08 04:56:29;;;;;;;3.07;2.53;;;11.80;10.40;;;11.94;68.62;101907.00;4938509;29;20495;-67
2022/05/08 04:59:00;;;;;;;5.90;3.03;;;11.80;6.30;;;11.85;68.17;101905.41;4938441;29;20783;-68
2022/05/08 05:01:28;;;;;;;3.50;2.40;;;11.70;4.00;;;12.14;66.59;101910.84;4938131;29;20412;-68
2022/05/08 05:03:57;;;;;;;4.80;2.37;;;11.80;2.90;;;13.83;62.01;101914.72;4938235;29;20428;-68
2022/05/08 05:06:30;;;;;;;5.87;2.33;;;12.40;1.00;;;15.65;57.26;101910.09;4937788;29;20791;-67
2022/05/08 05:08:59;;;;;;;2.97;1.93;;;13.40;1.00;;;16.63;54.49;101919.09;4938094;29;20460;-68
2022/05/08 05:11:28;;;;;;;3.30;2.10;;;14.40;1.00;;;17.16;52.35;101922.38;4937791;29;20421;-67
2022/05/08 05:13:59;;;;;;;2.80;1.67;;;14.90;1.00;;;18.16;50.48;101928.66;4937586;29;20929;-67
2022/05/08 05:16:28;;;;;;;4.30;2.17;;;15.80;1.00;;;18.49;49.95;101940.09;4937770;29;20527;-67
2022/05/08 05:18:57;;;;;;;4.30;2.10;;;16.10;1.00;;;18.83;47.21;101940.56;4937504;29;20428;-67
2022/05/08 05:21:25;;;;;;;6.63;2.60;;;16.30;1.00;;;17.83;48.95;101939.97;4937505;29;20417;-67
2022/05/08 05:23:54;;;;;;;9.57;2.13;;;15.80;1.00;;;15.88;52.97;101933.34;4937652;29;20404;-67
2022/05/08 05:26:22;;;;;;;5.50;2.17;;;15.40;1.00;;;14.82;55.40;101928.81;4937909;29;20444;-67
2022/05/08 05:28:52;;;;;;;10.07;2.43;;;14.90;1.00;;;14.26;57.79;101927.13;4937323;29;20944;-67
2022/05/08 05:31:22;;;;;;;4.30;1.57;;;14.30;1.00;;;14.05;58.02;101929.91;4937184;29;20940;-68
2022/05/08 05:33:51;;;;;;;6.20;2.50;;;14.00;1.00;;;13.91;60.13;101939.88;4936032;29;20444;-68
2022/05/08 05:36:20;;;;;;;4.70;1.93;;;13.60;1.00;;;13.86;58.86;101938.78;4936925;29;20449;-67
2022/05/08 05:38:48;;;;;;;4.90;2.17;;;13.70;1.00;;;13.55;58.66;101943.78;4937165;29;20444;-67
2022/05/08 05:41:17;;;;;;;2.50;1.70;;;13.50;1.00;;;13.66;59.12;101940.50;4937648;29;20439;-67
2022/05/08 05:43:46;;;;;;;4.30;2.30;;;13.50;1.00;;;13.90;58.26;101953.66;4937345;29;20425;-67
2022/05/08 05:49:05;;;;;;;7.10;2.80;;;13.60;1.00;;;14.00;59.15;101950.59;4958798;28;20433;-71
2022/05/08 05:51:35;;;;;;;3.33;2.20;;;13.70;1.00;;;13.90;58.69;101954.50;4941900;29;20413;-70
2022/05/08 05:54:04;;;;;;;11.17;2.70;;;13.70;1.00;;;14.02;58.18;101946.66;4939829;29;20528;-70
2022/05/08 05:56:33;;;;;;;7.30;2.97;;;13.70;1.00;;;14.07;58.14;101955.06;4931795;29;20847;-70
2022/05/08 05:59:01;;;;;;;9.40;2.73;;;13.80;1.00;;;13.88;57.29;101955.78;4921538;29;20421;-70
2022/05/08 06:01:46;;;;;;;3.50;1.90;;;13.80;1.00;;;13.90;58.00;101953.66;4921728;29;20452;-70
2022/05/08 06:04:17;;;;;;;4.50;1.80;;;13.80;1.00;;;14.17;57.30;101954.72;4922014;29;20429;-70
2022/05/08 06:06:45;;;;;;;8.83;2.20;;;13.90;1.00;;;13.84;57.32;101958.06;4919953;29;20454;-70
2022/05/08 06:09:14;;;;;;;4.20;1.57;;;13.80;1.00;;;14.13;57.96;101953.44;4920945;29;20469;-69
2022/05/08 06:11:44;;;;;;;5.03;2.10;;;13.90;1.00;;;14.10;57.04;101954.66;4920286;29;20848;-71
2022/05/08 06:14:12;;;;;;;3.57;1.77;;;14.00;1.00;;;14.27;57.19;101950.59;4920693;29;20529;-71
2022/05/08 06:16:42;;;;;;;4.40;2.40;;;14.10;1.00;;;14.66;55.01;101957.28;4921952;29;20969;-71
2022/05/08 06:19:11;;;;;;;8.03;2.87;;;14.30;1.00;;;14.76;53.73;101965.94;4921088;29;20813;-70
2022/05/08 06:21:42;;;;;;;8.13;6.10;;;14.40;1.00;;;14.95;54.74;101965.16;4921538;29;20903;-70
2022/05/08 06:24:10;;;;;;;12.30;7.70;;;14.60;1.00;;;15.34;54.61;101956.22;4921886;29;20493;-70
2022/05/08 06:26:40;;;;;;;11.27;9.73;;;14.90;1.00;;;15.49;53.51;101956.03;4921779;29;20981;-71
2022/05/08 06:29:08;;;;;;;10.73;5.57;;;14.90;1.00;;;15.84;54.47;101965.69;4922270;29;20473;-69
2022/05/08 06:31:37;;;;;;;27.20;25.33;;;15.30;1.00;;;15.73;53.08;101966.34;4922807;29;20408;-72
2022/05/08 06:34:06;;;;;;;6.93;3.00;;;15.40;1.00;;;16.01;54.76;101964.25;4922144;29;20426;-71
2022/05/08 06:36:35;;;;;;;4.83;2.60;;;15.50;1.00;;;15.96;52.97;101968.66;4920523;29;20483;-70
2022/05/08 06:39:06;;;;;;;2.90;1.97;;;15.70;1.00;;;15.96;53.72;101965.91;4921140;29;20430;-71
2022/05/08 06:41:36;;;;;;;5.77;2.27;;;15.60;1.00;;;16.05;53.96;101973.69;4922606;29;20417;-69
2022/05/08 06:44:05;;;;;;;13.27;2.23;;;15.50;1.00;;;16.38;53.43;101973.59;4921843;29;20426;-70
2022/05/08 06:46:36;;;;;;;5.13;2.23;;;15.80;1.00;;;16.32;54.31;101968.16;4921950;29;20467;-71
2022/05/08 06:49:05;;;;;;;7.53;2.43;;;15.80;1.00;;;16.55;53.67;101973.13;4922974;29;20592;-70
2022/05/08 06:51:35;;;;;;;6.07;2.23;;;16.00;1.00;;;15.79;53.56;101973.69;4923807;29;20429;-72
2022/05/08 06:54:05;;;;;;;2.47;1.70;;;15.90;1.00;;;15.52;54.46;101969.28;4924266;29;20392;-71
2022/05/08 06:56:35;;;;;;;7.77;2.70;;;15.70;1.00;;;15.14;54.95;101974.44;4928606;29;20493;-71
2022/05/08 07:01:51;;;;;;;9.37;2.70;;;15.30;1.00;;;15.87;53.10;101975.38;4935654;29;20574;-71
2022/05/08 07:04:20;;;;;;;3.63;1.90;;;15.50;1.00;;;15.96;53.26;101974.94;4934723;29;20441;-71
2022/05/08 07:06:49;;;;;;;3.63;2.10;;;15.60;1.00;;;15.49;53.40;101986.03;4933096;29;20465;-71
2022/05/08 07:09:19;;;;;;;5.93;2.00;;;15.60;1.00;;;15.65;53.41;101980.19;4934202;29;20493;-70
2022/05/08 07:11:48;;;;;;;8.00;2.90;;;15.50;1.00;;;15.53;53.39;101979.16;4934034;29;20437;-71
2022/05/08 07:14:17;;;;;;;11.53;3.50;;;15.50;1.00;;;15.64;54.08;101984.81;4936288;29;20426;-71
2022/05/08 07:16:46;;;;;;;4.40;2.60;;;15.50;1.00;;;15.74;53.05;101984.38;4935459;29;20420;-72
2022/05/08 07:19:15;;;;;;;5.20;2.43;;;15.50;1.00;;;15.77;53.83;101991.34;4934445;29;20398;-70
2022/05/08 07:21:44;;;;;;;7.00;2.90;;;15.60;1.00;;;16.06;53.10;101990.91;4936075;29;20444;-71
2022/05/08 07:24:12;;;;;;;5.53;2.27;;;15.70;1.00;;;15.59;54.17;101994.66;4934892;29;20499;-71
2022/05/08 07:26:45;;;;;;;6.83;3.30;;;15.60;1.00;;;15.86;54.14;101993.66;4923458;29;20445;-71
2022/05/08 07:29:13;;;;;;;4.07;2.77;;;15.70;1.00;;;15.43;54.27;101995.91;4919896;29;20452;-71
2022/05/08 07:31:42;;;;;;;10.93;2.90;;;15.40;1.00;;;15.51;53.25;101997.59;4919497;29;20433;-70
2022/05/08 07:36:54;;;;;;;8.80;2.73;;;15.50;1.00;;;15.55;51.19;101987.94;4887316;29;20553;-69
2022/05/08 07:39:23;;;;;;;12.33;3.23;;;15.50;1.00;;;15.43;51.00;101990.44;4920242;29;20402;-70
2022/05/08 07:41:53;;;;;;;7.23;2.10;;;15.40;1.00;;;15.61;53.28;101998.03;4919995;29;20404;-70
2022/05/08 07:44:21;;;;;;;3.90;2.37;;;15.40;1.00;;;15.90;52.55;101994.91;4919806;29;20433;-70
2022/05/08 07:46:51;;;;;;;4.50;2.93;;;15.60;1.00;;;16.15;51.94;101991.50;4919300;29;20488;-71
2022/05/08 07:49:20;;;;;;;9.93;2.60;;;15.90;1.00;;;16.08;52.38;101989.63;4919025;29;20461;-71
2022/05/08 07:51:48;;;;;;;4.60;2.00;;;15.90;1.00;;;15.94;52.35;101992.56;4919456;29;20412;-70
2022/05/08 07:54:17;;;;;;;4.90;3.17;;;15.90;1.00;;;15.67;53.37;101991.75;4920572;29;20422;-71
2022/05/08 07:56:46;;;;;;;9.30;3.47;;;15.70;1.00;;;15.60;54.01;101991.75;4919338;29;20449;-71
2022/05/08 07:59:17;;;;;;;12.60;2.83;;;15.50;1.00;;;15.61;53.83;101992.59;4920841;29;20917;-71
2022/05/08 08:01:45;;;;;;;5.00;2.53;;;15.60;1.00;;;15.63;54.41;101995.97;4919543;29;20414;-71
2022/05/08 08:04:19;;;;;;;7.10;2.97;;;15.50;1.00;;;15.27;55.08;101995.44;4919797;29;20429;-70
2022/05/08 08:06:48;;;;;;;7.60;3.80;;;15.30;1.00;;;15.76;55.16;102001.41;4918977;29;20427;-70
2022/05/08 08:09:17;;;;;;;6.30;3.77;;;15.50;1.00;;;15.72;55.19;101999.31;4919718;29;20517;-70
2022/05/08 08:11:46;;;;;;;4.70;3.20;;;15.60;1.00;;;16.02;54.74;102001.38;4919137;29;20442;-72
2022/05/08 08:14:16;;;;;;;13.13;3.57;;;15.80;1.00;;;16.17;54.04;102011.28;4919109;29;20423;-70
2022/05/08 08:17:05;;;;;;;5.13;2.33;;;16.10;1.00;;;16.26;54.70;102001.81;4919722;29;20460;-71
2022/05/08 08:19:33;;;;;;;6.53;4.13;;;16.10;1.00;;;16.35;53.29;102005.97;4923897;29;20410;-71
2022/05/08 08:22:02;;;;;;;4.23;3.20;;;16.20;1.00;;;16.54;53.98;102010.56;4923976;29;20937;-71
2022/05/08 08:24:32;;;;;;;10.53;4.10;;;16.20;1.00;;;16.64;53.70;102016.44;4923482;29;20464;-74
2022/05/08 08:27:01;;;;;;;4.60;3.03;;;16.40;1.00;;;16.80;53.06;102012.38;4924177;29;20537;-71
2022/05/08 08:29:31;;;;;;;5.97;3.10;;;16.60;1.00;;;16.67;52.50;102010.53;4925049;29;20987;-72
2022/05/08 08:31:59;;;;;;;9.73;4.60;;;16.60;1.00;;;16.56;52.16;102018.50;4925617;29;20564;-70
2022/05/08 08:34:28;;;;;;;5.80;2.77;;;16.50;1.00;;;16.55;52.62;102031.38;4930555;29;20461;-71
2022/05/08 08:36:57;;;;;;;7.70;4.00;;;16.40;1.00;;;16.37;51.61;102018.34;4935326;29;20495;-70
2022/05/08 08:39:25;;;;;;;6.40;2.57;;;16.30;1.00;;;16.48;51.66;102016.88;4933184;29;20456;-71
2022/05/08 08:42:04;;;;;;;5.20;2.27;;;16.30;1.00;;;16.89;50.58;102009.19;4933396;29;20435;-71
2022/05/08 08:47:45;;;;;;;4.90;2.00;;;16.60;1.00;;;16.99;50.45;102016.09;4924340;29;20541;-72
2022/05/08 08:50:15;;;;;;;9.77;2.47;;;16.80;1.00;;;17.22;49.89;102022.72;4933446;29;20752;-72
2022/05/08 08:52:45;;;;;;;6.97;2.03;;;17.00;1.00;;;17.43;49.76;102027.00;4929264;29;20454;-72
2022/05/08 08:55:15;;;;;;;5.93;2.50;;;17.20;1.00;;;17.27;49.45;102022.06;4932718;29;20488;-72
2022/05/08 08:57:45;;;;;;;5.67;2.60;;;17.20;1.00;;;17.25;50.12;102029.63;4932082;29;20449;-72
2022/05/08 09:00:17;;;;;;;4.37;2.13;;;17.10;1.00;;;17.41;49.62;102028.28;4929142;29;20395;-69
2022/05/08 09:02:48;;;;;;;4.93;1.93;;;17.20;1.00;;;17.62;49.46;102026.06;4921575;29;20797;-72
2022/05/08 09:05:17;;;;;;;3.40;1.60;;;17.40;1.00;;;17.40;49.32;102024.72;4921865;29;20404;-72
2022/05/08 09:07:50;;;;;;;7.10;2.70;;;17.20;1.00;;;17.66;49.18;102035.53;4920380;29;20473;-72
2022/05/08 09:10:21;;;;;;;6.10;3.07;;;17.40;1.00;;;17.86;49.47;102034.53;4921240;29;20483;-72
2022/05/08 09:13:06;;;;;;;6.10;3.40;;;17.60;1.00;;;17.85;48.93;102030.13;4920969;29;20412;-71
2022/05/08 09:15:40;;;;;;;7.23;2.10;;;17.60;1.00;;;17.69;48.30;102028.75;4921305;29;20447;-72
2022/05/08 09:18:12;;;;;;;3.30;1.90;;;17.60;1.00;;;17.28;49.28;102031.94;4920413;29;20437;-72
2022/05/08 09:20:43;;;;;;;6.30;2.63;;;17.50;1.00;;;17.31;49.50;102024.13;4920627;29;20414;-71
2022/05/08 09:23:14;;;;;;;6.90;2.30;;;17.30;1.00;;;17.48;49.75;102024.44;4920948;29;20801;-72
2022/05/08 09:25:53;;;;;;;3.50;2.03;;;17.30;1.00;;;18.01;50.00;102033.13;4922986;29;20448;-71
2022/05/08 09:28:40;;;;;;;7.67;3.33;;;17.60;1.00;;;17.61;47.95;102032.63;4921063;29;20805;-71
2022/05/08 09:31:12;;;;;;;6.70;1.50;;;17.60;1.00;;;17.91;47.08;102032.78;4921114;29;20433;-71
2022/05/08 09:33:43;;;;;;;3.80;1.70;;;17.70;1.00;;;18.07;46.77;102025.91;4921243;29;20849;-71
2022/05/08 09:36:17;;;;;;;4.07;2.67;;;17.80;1.00;;;18.25;46.42;102031.41;4921994;29;20556;-71
2022/05/08 09:38:50;;;;;;;5.50;1.70;;;18.00;1.00;;;18.60;46.31;102032.56;4920871;29;20420;-71
2022/05/08 09:41:22;;;;;;;3.80;2.20;;;18.20;1.00;;;18.14;45.30;102026.69;4920515;29;20417;-71
2022/05/08 09:43:54;;;;;;;8.40;2.50;;;18.20;1.00;;;18.22;45.57;102026.41;4921206;29;20405;-73
2022/05/08 09:46:24;;;;;;;3.73;2.17;;;18.20;1.00;;;18.24;45.00;102024.28;4920140;29;20465;-72
2022/05/08 09:48:58;;;;;;;6.50;3.53;;;18.20;1.00;;;18.40;45.20;102018.19;4920470;29;20423;-71
2022/05/08 09:51:27;;;;;;;4.37;1.77;;;18.30;1.00;;;18.44;44.85;102013.97;4920369;29;20408;-72
2022/05/08 09:53:57;;;;;;;6.87;2.10;;;18.30;1.00;;;18.12;45.88;102026.91;4918112;29;20424;-71
2022/05/08 09:56:26;;;;;;;4.13;2.13;;;18.10;1.00;;;18.01;45.50;102024.09;4920256;29;20959;-72
2022/05/08 09:58:55;;;;;;;3.10;1.90;;;18.00;1.00;;;18.13;45.47;102025.03;4919430;29;20434;-70
2022/05/08 10:01:26;;;;;;;7.50;1.93;;;18.10;1.00;;;17.90;44.29;102042.09;4919763;29;20615;-72
2022/05/08 10:03:56;;;;;;;5.67;1.80;;;17.90;1.00;;;18.07;44.81;102028.66;4920844;29;20428;-72
2022/05/08 10:06:28;;;;;;;4.03;1.97;;;17.90;1.00;;;18.39;44.38;102035.75;4921133;29;20452;-72
2022/05/08 10:14:33;;;;;;;3.90;1.77;;;18.20;1.00;;;18.52;43.21;102021.03;4920403;29;20440;-71
2022/05/08 10:17:07;;;;;;;7.40;2.07;;;18.30;1.00;;;18.49;43.98;102027.81;4918665;29;20436;-70
2022/05/08 10:19:54;;;;;;;3.43;1.87;;;18.30;1.00;;;18.20;42.98;102040.31;4920106;29;20396;-72
2022/05/08 10:22:24;;;;;;;5.43;2.10;;;18.20;1.00;;;18.44;43.26;102033.16;4919590;29;20928;-72
2022/05/08 10:25:15;;;;;;;6.53;2.80;;;18.30;1.00;;;18.22;41.62;102027.25;4920047;29;20766;-72
2022/05/08 10:28:08;;;;;;;5.30;2.60;;;18.40;1.00;;;17.96;42.25;102026.66;4918432;29;20941;-72
2022/05/08 10:30:38;;;;;;;7.37;2.17;;;18.00;1.00;;;18.13;42.47;102033.25;4919445;29;20939;-72
2022/05/08 10:33:09;;;;;;;2.80;1.70;;;18.00;1.00;;;18.25;41.56;102025.94;4920372;29;20393;-72
2022/05/08 10:35:38;;;;;;;7.33;2.40;;;18.10;1.00;;;18.50;41.14;102032.22;4919172;29;20411;-72
2022/05/08 10:38:22;;;;;;;5.60;2.07;;;18.30;1.00;;;18.58;41.21;102020.19;4918893;29;20428;-72
2022/05/08 10:40:53;;;;;;;4.30;2.00;;;18.40;1.00;;;18.72;40.25;102020.84;4918173;29;20412;-71
2022/05/08 10:43:28;;;;;;;7.63;2.03;;;18.60;1.00;;;18.78;40.29;102028.19;4918592;29;20421;-73
2022/05/08 10:46:23;;;;;;;6.50;2.00;;;18.60;1.00;;;18.22;40.52;102021.78;4917645;29;20528;-73
2022/05/08 10:48:54;;;;;;;6.03;2.00;;;18.40;1.00;;;18.39;40.01;102037.63;4918930;29;20742;-72
2022/05/08 10:51:23;;;;;;;4.93;1.63;;;18.30;1.00;;;18.42;38.96;102023.47;4919060;29;20479;-72
2022/05/08 10:53:52;;;;;;;9.50;2.47;;;18.30;1.00;;;18.53;38.65;102028.22;4918825;29;20500;-72